Dennis, MA

8:58 PM EST on December 20, 2014 (GMT -0500)
Scargo Hill Dennis MA | Change Station
CLOSE
Current Station
Personal Weather Station
Location: Dennis, MA
Elevation: 133 ft
Nearby Weather Stations

Elev 133 ft 41.74 °N, 70.18 °W | Updated 17 seconds ago

Overcast
Overcast
37.0 °F
Feels Like 37 °F
N
1.6
Wind Variable Wind from NNW
Gusts 5.4 mph

Today
High -- | Low -- °F
--% Chance of Precip.
Yesterday
High -- | Low -- °F
Precip. -- in
7:04 AM 4:12 PM
Waning Crescent, 1% visible
Pressure 30.25 in
Visibility 10.0 miles
Clouds Scattered Clouds 2500 ft
Overcast 4600 ft
Windchill 37 °F
Dew Point 37 °F
Humidity 99%
Rainfall 0.07 in
Snow Depth Not available.
UV 0 out of 12
Pollen .10 out of 12
Air Quality Not available.
Flu Activity Not available.
METAR KHYA 210056Z 04005KT 10SM SCT025 OVC046 03/02 A3025 RMK AO2 SLP243 T00330017

More Conditions Fewer Conditions

Pressure 30.25 in
Visibility 10.0 miles
Clouds Scattered Clouds 2500 ft
Overcast 4600 ft
Windchill 37 °F
Dew Point 37 °F
Humidity 99%
Rainfall 0.07 in
Snow Depth Not available.
UV 0 out of 12
Pollen .10 out of 12
Air Quality Not available.
Flu Activity Not available.
METAR KHYA 210056Z 04005KT 10SM SCT025 OVC046 03/02 A3025 RMK AO2 SLP243 T00330017

More Conditions Fewer Conditions

10-Day Weather Forecast

Almanac

Astronomy

Dec. 20, 2014 Rise Set
Actual Time
Civil Twilight
Nautical Twilight
Astronomical Twilight
Moon
Length of Visible Light
Length of Day
Tomorrow will be .
, % of the Moon is Illuminated

Today's Extremes

State Highs State Lows

Community

WunderPhotos

Upload Photos

1,779,339 photos uploaded!

WunderBlogs® & News

Nearby

Air Quality

  Air Quality AQ Index Pollutant
Not available.

Snow Depth

Station Depth Elevation

Earthquake Activity

City Distance Mag. Time & Date
Minimum magnitude displayed is 2.5.

Coastal Water Temperatures

Place Temperature

Nearby Weather Stations